Caribou, ME

8:08 PM EDT on August 28, 2016 (GMT -0400)
Caribou Municipal | | Change Station

Elev 623 ft 46.87 °N, 68.02 °W | Updated 14 minutes ago

Overcast
Overcast
66 °F
Feels Like 66 °F
N
9
Wind Variable Wind from South

Today
High -- | Low -- °F
--% Chance of Precip.
Yesterday
High -- | Low -- °F
Precip. -- in
Pressure 30.08 in
Visibility 10.0 miles
Clouds Overcast 8000 ft
Dew Point 61 °F
Humidity 84%
Rainfall 0.00 in
Snow Depth Not available.
5:47 AM 7:18 PM
Waning Crescent, 12% visible
METAR KCAR 282354Z AUTO 17008KT 10SM OVC080 19/16 A3007 RMK AO2 SLP185 60000 T01890161 10211 20183 56026
Pressure 30.08 in
Visibility 10.0 miles
Clouds Overcast 8000 ft
Dew Point 61 °F
Humidity 84%
Rainfall 0.00 in
Snow Depth Not available.
5:47 AM 7:18 PM
Waning Crescent, 12% visible
METAR KCAR 282354Z AUTO 17008KT 10SM OVC080 19/16 A3007 RMK AO2 SLP185 60000 T01890161 10211 20183 56026

10-Day Weather Forecast

Almanac

Astronomy

Aug. 28, 2016 Rise Set
Actual Time
Civil Twilight
Nautical Twilight
Astronomical Twilight
Moon
Length of Visible Light
Length of Day
Tomorrow will be .
, % of the Moon is Illuminated

Today's Extremes

State Highs State Lows

Community

WunderPhotos

Upload Photos

1,935,726 photos uploaded!

WunderBlog® & News

Nearby

Air Quality

  Air Quality AQ Index Pollutant
Not available.

Snow Depth

Station Depth Elevation

Earthquake Activity

City Distance Mag. Time & Date
Minimum magnitude displayed is 2.5.

Coastal Water Temperatures

Place Temperature

Stations

Nearby Weather Stations

Station Location Temp. Windchill Dew Point Humidity Wind Precip. Elev Updated Type
                   

Watches & Warnings

There are currently no watches in effect.